Time;durP1;ratioP1;P1;durP2;ratioP2;P2;SDS_P1;SDS_P2;PMS_P1;PMS_P2;Temp;Humidity;BMP_temperature;BMP_pressure;BME280_temperature;BME280_humidity;BME280_pressure;Samples;Min_cycle;Max_cycle;Signal;HPM_P1;HPM_P2
2024/01/30 00:01:41;;;;;;;20.90;9.13;;;;;;;6.40;100.00;102443.72;4998138;28;20045;-75
2024/01/30 00:04:06;;;;;;;21.38;9.77;;;;;;;6.37;100.00;102450.03;4999787;28;20029;-74
2024/01/30 00:06:32;;;;;;;23.42;9.05;;;;;;;6.35;100.00;102448.34;4998383;28;20037;-75
2024/01/30 00:08:57;;;;;;;24.40;9.60;;;;;;;6.33;100.00;102447.53;4999058;28;20034;-76
2024/01/30 00:11:24;;;;;;;23.80;9.38;;;;;;;6.29;100.00;102450.25;4993249;28;20110;-77
2024/01/30 00:13:50;;;;;;;21.52;9.70;;;;;;;6.28;100.00;102442.28;4992547;28;20026;-76
2024/01/30 00:16:25;;;;;;;20.42;8.77;;;;;;;6.23;100.00;102444.22;4993813;28;20107;-76
2024/01/30 00:18:51;;;;;;;19.77;8.98;;;;;;;6.21;100.00;102446.06;4992598;28;20027;-77
2024/01/30 00:21:17;;;;;;;22.55;8.68;;;;;;;6.16;100.00;102435.53;4996331;28;20022;-77
2024/01/30 00:23:43;;;;;;;21.02;8.52;;;;;;;6.11;100.00;102432.97;4997404;28;20136;-76
2024/01/30 00:26:08;;;;;;;20.70;9.07;;;;;;;6.10;100.00;102436.56;4994433;28;20045;-76
2024/01/30 00:28:33;;;;;;;20.13;7.43;;;;;;;6.10;100.00;102441.03;4989148;28;20047;-76
2024/01/30 00:30:58;;;;;;;23.92;8.95;;;;;;;6.10;100.00;102436.56;4993575;28;20065;-76
2024/01/30 00:33:24;;;;;;;22.42;8.73;;;;;;;6.10;100.00;102439.22;4993808;28;20022;-76
2024/01/30 00:35:49;;;;;;;23.48;9.73;;;;;;;6.12;100.00;102433.88;5002998;28;20045;-76
2024/01/30 00:38:14;;;;;;;21.58;8.57;;;;;;;6.11;100.00;102432.13;4995622;28;20106;-76
2024/01/30 00:40:40;;;;;;;20.60;8.38;;;;;;;6.12;100.00;102428.53;4996616;28;22153;-76
2024/01/30 00:43:06;;;;;;;19.95;7.95;;;;;;;6.08;100.00;102427.75;4993444;28;20340;-76
2024/01/30 00:45:34;;;;;;;21.40;7.97;;;;;;;6.10;100.00;102425.88;4994227;28;20029;-76
2024/01/30 00:47:59;;;;;;;22.25;8.77;;;;;;;6.11;100.00;102427.66;4996130;28;20026;-76
2024/01/30 00:50:25;;;;;;;23.58;9.20;;;;;;;6.09;100.00;102432.16;4994617;28;20030;-76
2024/01/30 00:52:50;;;;;;;18.40;8.35;;;;;;;6.10;100.00;102423.22;4997233;28;20100;-76
2024/01/30 00:55:15;;;;;;;22.90;8.48;;;;;;;6.12;100.00;102418.72;4996316;28;20112;-76
2024/01/30 00:57:41;;;;;;;19.05;7.93;;;;;;;6.13;100.00;102424.94;4993720;28;20030;-76
2024/01/30 01:00:09;;;;;;;20.15;8.38;;;;;;;6.14;100.00;102413.34;4992183;28;20125;-76
2024/01/30 01:02:40;;;;;;;21.45;8.45;;;;;;;6.15;100.00;102417.78;4992027;28;20026;-76
2024/01/30 01:05:05;;;;;;;19.63;8.85;;;;;;;6.15;100.00;102423.13;4991638;28;20399;-76
2024/01/30 01:07:31;;;;;;;21.25;8.40;;;;;;;6.15;100.00;102420.44;4993946;28;20052;-76
2024/01/30 01:09:56;;;;;;;19.92;8.80;;;;;;;6.15;100.00;102420.44;4994897;28;20038;-76
2024/01/30 01:12:21;;;;;;;19.05;7.40;;;;;;;6.15;100.00;102423.13;4995922;28;20104;-76
2024/01/30 01:14:47;;;;;;;21.30;9.20;;;;;;;6.15;100.00;102423.13;4999714;28;20060;-76
2024/01/30 01:17:12;;;;;;;19.17;7.35;;;;;;;6.14;100.00;102418.69;4992652;28;20121;-76
2024/01/30 01:19:37;;;;;;;22.25;9.48;;;;;;;6.17;100.00;102420.41;4996685;28;20552;-76
2024/01/30 01:22:03;;;;;;;20.50;7.55;;;;;;;6.17;100.00;102415.06;5000357;28;20159;-75
2024/01/30 01:24:30;;;;;;;21.33;8.27;;;;;;;6.17;100.00;102413.25;4999530;28;20029;-74
2024/01/30 01:26:57;;;;;;;18.50;8.10;;;;;;;6.19;100.00;102416.72;5006811;28;20050;-76
2024/01/30 01:29:28;;;;;;;22.13;8.93;;;;;;;6.20;100.00;102410.50;5019533;28;20223;-75
2024/01/30 01:31:53;;;;;;;19.90;7.60;;;;;;;6.23;100.00;102413.06;5013071;28;20033;-74
2024/01/30 01:34:19;;;;;;;19.48;8.70;;;;;;;6.24;100.00;102405.94;5001639;28;20104;-75
2024/01/30 01:36:44;;;;;;;19.25;7.80;;;;;;;6.29;100.00;102409.34;5001692;28;20033;-74
2024/01/30 01:39:10;;;;;;;25.33;8.52;;;;;;;6.32;100.00;102397.69;5004187;28;20072;-74
2024/01/30 01:41:35;;;;;;;19.90;8.05;;;;;;;6.35;100.00;102402.94;5018181;28;20593;-74
2024/01/30 01:44:01;;;;;;;20.10;7.57;;;;;;;6.35;100.00;102402.94;5017496;28;20026;-75
2024/01/30 01:46:29;;;;;;;20.23;7.90;;;;;;;6.37;100.00;102396.63;5002370;28;20030;-74
2024/01/30 01:48:55;;;;;;;18.98;7.55;;;;;;;6.37;100.00;102398.41;5005390;28;20393;-74
2024/01/30 01:51:21;;;;;;;20.42;8.43;;;;;;;6.37;100.00;102396.63;5016460;28;20060;-73
2024/01/30 01:53:47;;;;;;;19.75;8.13;;;;;;;6.39;100.00;102393.91;5003806;28;20562;-77
2024/01/30 01:56:12;;;;;;;19.33;8.52;;;;;;;6.42;100.00;102394.69;5003571;28;20022;-74
2024/01/30 01:58:38;;;;;;;21.00;7.57;;;;;;;6.43;100.00;102392.91;5003789;28;20042;-73
2024/01/30 02:01:04;;;;;;;20.05;8.15;;;;;;;6.42;100.00;102391.16;5019398;28;20446;-76
2024/01/30 02:03:30;;;;;;;19.83;7.47;;;;;;;6.42;100.00;102388.47;5003882;28;20465;-76
2024/01/30 02:05:56;;;;;;;22.75;7.60;;;;;;;6.44;100.00;102381.28;5042602;22;20357;-77
2024/01/30 02:08:25;;;;;;;23.65;8.40;;;;;;;6.46;100.00;102376.78;5015071;28;20026;-76
2024/01/30 02:10:50;;;;;;;26.45;8.98;;;;;;;6.49;100.00;102384.69;5000583;28;20026;-76
2024/01/30 02:13:15;;;;;;;23.50;8.23;;;;;;;6.48;100.00;102382.94;5019311;28;20105;-76
2024/01/30 02:15:41;;;;;;;18.55;7.13;;;;;;;6.50;100.00;102381.13;5001692;28;20045;-76
2024/01/30 02:18:06;;;;;;;17.23;6.85;;;;;;;6.51;100.00;102384.66;5005649;28;20574;-77
2024/01/30 02:20:35;;;;;;;23.35;8.65;;;;;;;6.52;100.00;102386.41;5023497;28;20033;-76
2024/01/30 02:23:01;;;;;;;19.77;8.10;;;;;;;6.52;100.00;102379.25;5006613;28;20021;-76
2024/01/30 02:25:46;;;;;;;20.55;8.20;;;;;;;6.53;100.00;102383.69;5020264;28;20021;-76
2024/01/30 02:28:14;;;;;;;19.10;7.22;;;;;;;6.54;100.00;102388.06;5015516;28;20030;-76
2024/01/30 02:30:40;;;;;;;19.17;7.55;;;;;;;6.54;100.00;102382.75;5018427;28;20034;-76
2024/01/30 02:33:06;;;;;;;19.23;7.55;;;;;;;6.53;100.00;102382.78;5002336;28;20295;-76
2024/01/30 02:35:31;;;;;;;21.40;8.27;;;;;;;6.54;100.00;102382.75;5020024;28;20037;-76
2024/01/30 02:37:56;;;;;;;19.48;7.85;;;;;;;6.57;100.00;102377.28;5017020;28;20076;-76
2024/01/30 02:40:22;;;;;;;19.85;8.18;;;;;;;6.56;100.00;102380.91;5015878;28;20773;-76
2024/01/30 02:42:47;;;;;;;17.80;7.32;;;;;;;6.56;100.00;102378.25;4997448;28;20037;-76
2024/01/30 02:45:13;;;;;;;19.73;7.43;;;;;;;6.57;100.00;102379.97;4999314;28;20022;-76
2024/01/30 02:47:39;;;;;;;20.95;7.55;;;;;;;6.57;100.00;102377.28;5017926;28;20029;-76
2024/01/30 02:50:05;;;;;;;19.48;7.68;;;;;;;6.57;100.00;102371.94;5014496;28;20022;-76
2024/01/30 02:52:30;;;;;;;19.25;7.70;;;;;;;6.56;100.00;102374.66;5017780;28;20029;-76
2024/01/30 02:54:55;;;;;;;21.25;8.05;;;;;;;6.58;100.00;102373.72;5016534;28;20065;-76
2024/01/30 02:57:20;;;;;;;20.30;7.78;;;;;;;6.60;100.00;102368.31;5023628;28;20026;-76
2024/01/30 02:59:46;;;;;;;19.50;7.97;;;;;;;6.61;100.00;102367.41;4998933;28;20033;-76
2024/01/30 03:02:11;;;;;;;20.63;7.55;;;;;;;6.60;100.00;102369.22;5021172;28;20097;-77
2024/01/30 03:04:36;;;;;;;19.27;7.93;;;;;;;6.62;100.00;102364.69;5005602;28;20013;-76
2024/01/30 03:07:02;;;;;;;19.75;7.68;;;;;;;6.62;100.00;102370.03;4994583;28;20046;-76
2024/01/30 03:09:27;;;;;;;20.77;8.82;;;;;;;6.62;100.00;102367.34;5013329;28;20040;-77
2024/01/30 03:11:52;;;;;;;19.25;7.95;;;;;;;6.62;100.00;102353.13;5009729;28;20282;-76
2024/01/30 03:14:17;;;;;;;20.40;7.50;;;;;;;6.64;100.00;102349.47;4992584;28;20022;-76
2024/01/30 03:16:43;;;;;;;20.33;7.13;;;;;;;6.64;100.00;102346.78;5005340;28;20041;-76
2024/01/30 03:19:09;;;;;;;24.17;6.97;;;;;;;6.65;100.00;102340.53;5008889;28;20041;-76
2024/01/30 03:21:34;;;;;;;20.05;7.20;;;;;;;6.67;100.00;102347.63;5009769;28;20033;-76
2024/01/30 03:24:00;;;;;;;21.42;7.63;;;;;;;6.65;100.00;102348.53;5012364;28;20029;-76
2024/01/30 03:26:25;;;;;;;19.60;7.65;;;;;;;6.67;100.00;102351.16;4987038;28;20753;-76
2024/01/30 03:28:50;;;;;;;19.27;7.60;;;;;;;6.65;100.00;102350.34;4992980;28;20260;-76
2024/01/30 03:31:16;;;;;;;20.83;8.63;;;;;;;6.66;100.00;102346.75;5013349;28;20033;-76
2024/01/30 03:33:41;;;;;;;21.30;7.95;;;;;;;6.68;100.00;102344.00;5013658;28;20488;-76
2024/01/30 03:36:07;;;;;;;20.67;7.78;;;;;;;6.66;100.00;102338.72;5012405;28;20100;-76
2024/01/30 03:38:33;;;;;;;18.60;7.35;;;;;;;6.66;100.00;102338.72;4990689;28;20030;-76
2024/01/30 03:40:59;;;;;;;18.55;7.55;;;;;;;6.67;100.00;102339.63;4990391;28;20097;-76
2024/01/30 03:43:24;;;;;;;16.10;6.40;;;;;;;6.68;100.00;102352.91;4989814;28;20014;-76
2024/01/30 03:45:49;;;;;;;23.10;8.43;;;;;;;6.71;100.00;102343.94;4992177;28;20026;-76
2024/01/30 03:48:15;;;;;;;20.35;7.68;;;;;;;6.73;100.00;102347.41;4990606;28;20041;-76
2024/01/30 03:50:40;;;;;;;19.95;8.00;;;;;;;6.73;100.00;102352.75;4985422;28;20026;-76
2024/01/30 03:53:05;;;;;;;21.15;7.95;;;;;;;6.76;100.00;102350.00;4987640;28;20436;-76
2024/01/30 03:55:31;;;;;;;20.63;8.07;;;;;;;6.77;100.00;102349.94;5007341;28;20045;-76
2024/01/30 03:57:56;;;;;;;20.33;8.32;;;;;;;6.80;100.00;102352.50;5015590;28;20088;-76
2024/01/30 04:00:21;;;;;;;22.10;8.52;;;;;;;6.82;100.00;102350.66;5008267;28;20053;-76
2024/01/30 04:02:46;;;;;;;21.92;8.98;;;;;;;6.84;100.00;102345.28;4986592;28;20489;-76
2024/01/30 04:05:12;;;;;;;20.92;7.97;;;;;;;6.86;100.00;102355.91;5005709;28;20032;-76
2024/01/30 04:07:37;;;;;;;22.08;7.93;;;;;;;6.86;100.00;102351.44;4992580;28;20050;-76
2024/01/30 04:10:05;;;;;;;19.80;7.90;;;;;;;6.87;100.00;102349.63;5014350;28;20476;-76
2024/01/30 04:12:31;;;;;;;19.95;7.95;;;;;;;6.87;100.00;102353.19;5012514;28;20034;-76
2024/01/30 04:14:56;;;;;;;18.20;7.57;;;;;;;6.89;100.00;102350.47;5013794;28;20125;-76
2024/01/30 04:17:22;;;;;;;20.77;8.02;;;;;;;6.92;100.00;102342.34;5011796;28;20061;-76
2024/01/30 04:19:47;;;;;;;21.45;7.57;;;;;;;6.94;100.00;102344.03;4998355;28;20082;-76
2024/01/30 04:22:12;;;;;;;22.85;8.70;;;;;;;6.96;100.00;102349.31;4998955;28;20133;-76
2024/01/30 04:24:37;;;;;;;19.33;7.32;;;;;;;6.98;100.00;102335.00;5013186;28;20049;-76
2024/01/30 04:27:03;;;;;;;20.20;7.88;;;;;;;6.99;100.00;102342.06;5013792;28;20014;-76
2024/01/30 04:29:28;;;;;;;21.05;8.50;;;;;;;7.01;100.00;102334.00;4986984;28;20030;-76
2024/01/30 04:31:54;;;;;;;19.58;7.30;;;;;;;7.01;100.00;102328.66;4999646;28;20480;-76
2024/01/30 04:34:19;;;;;;;19.33;7.72;;;;;;;7.02;100.00;102322.38;4997633;28;20014;-76
2024/01/30 04:36:45;;;;;;;21.48;8.13;;;;;;;7.03;100.00;102320.56;4998533;28;20118;-76
2024/01/30 04:39:10;;;;;;;24.58;7.80;;;;;;;7.03;100.00;102321.47;4998307;28;20030;-76
2024/01/30 04:41:36;;;;;;;18.88;8.25;;;;;;;7.04;100.00;102316.97;4982160;28;20181;-77
2024/01/30 04:44:01;;;;;;;17.85;6.90;;;;;;;7.05;100.00;102310.72;5001047;28;20318;-76
2024/01/30 04:46:26;;;;;;;20.05;8.10;;;;;;;7.07;100.00;102311.53;4990140;28;20033;-77
2024/01/30 04:48:52;;;;;;;18.45;8.10;;;;;;;7.09;100.00;102296.31;4998052;28;20114;-76
2024/01/30 04:51:17;;;;;;;17.92;6.70;;;;;;;7.11;100.00;102299.78;5004105;28;20056;-77
2024/01/30 04:53:42;;;;;;;19.83;7.10;;;;;;;7.11;100.00;102305.16;4996939;28;20022;-76
2024/01/30 04:56:08;;;;;;;18.92;7.28;;;;;;;7.14;100.00;102305.91;4992780;28;20038;-76
2024/01/30 04:58:33;;;;;;;20.45;7.43;;;;;;;7.17;100.00;102308.50;4985706;28;20023;-76
2024/01/30 05:00:58;;;;;;;20.95;7.53;;;;;;;7.22;100.00;102311.00;5004030;28;20494;-77
2024/01/30 05:03:24;;;;;;;21.92;7.13;;;;;;;7.24;100.00;102308.25;4986429;28;20264;-76
2024/01/30 05:05:49;;;;;;;21.10;7.75;;;;;;;7.26;100.00;102309.97;5003105;23;20195;-77
2024/01/30 05:08:15;;;;;;;19.73;7.70;;;;;;;7.26;100.00;102317.97;4967644;28;20505;-76
2024/01/30 05:10:40;;;;;;;20.67;6.88;;;;;;;7.24;100.00;102311.81;4970034;28;20027;-76
2024/01/30 05:13:05;;;;;;;19.67;6.90;;;;;;;7.25;100.00;102315.38;4966598;28;20022;-76
2024/01/30 05:15:31;;;;;;;20.85;7.90;;;;;;;7.22;100.00;102321.69;4972224;28;20027;-76
2024/01/30 05:17:56;;;;;;;18.13;6.97;;;;;;;7.23;100.00;102311.84;4974474;28;20042;-76
2024/01/30 05:20:21;;;;;;;21.50;7.00;;;;;;;7.23;100.00;102303.84;4973275;28;20027;-77
2024/01/30 05:22:46;;;;;;;20.65;7.35;;;;;;;7.24;100.00;102313.59;4986369;28;20491;-77
2024/01/30 05:25:13;;;;;;;20.50;8.05;;;;;;;7.27;100.00;102313.50;4967147;28;20033;-77
2024/01/30 05:27:38;;;;;;;22.20;8.77;;;;;;;7.29;100.00;102309.84;4972160;28;20061;-76
2024/01/30 05:30:08;;;;;;;21.02;7.97;;;;;;;7.30;100.00;102297.34;4972165;28;20042;-77
2024/01/30 05:32:33;;;;;;;21.92;8.00;;;;;;;7.32;100.00;102307.06;4972654;28;20022;-76
2024/01/30 05:34:59;;;;;;;20.02;8.02;;;;;;;7.35;100.00;102317.63;4985631;28;20365;-77
2024/01/30 05:37:24;;;;;;;19.55;7.97;;;;;;;7.37;100.00;102316.72;4985774;28;20414;-76
2024/01/30 05:39:49;;;;;;;22.60;8.23;;;;;;;7.38;100.00;102307.75;4976693;28;20027;-75
2024/01/30 05:42:16;;;;;;;20.75;8.30;;;;;;;7.39;100.00;102301.47;4992097;28;20026;-74
2024/01/30 05:44:42;;;;;;;20.40;8.10;;;;;;;7.40;100.00;102305.91;4973596;28;20051;-75
2024/01/30 05:47:07;;;;;;;21.38;8.30;;;;;;;7.43;100.00;102312.00;4992775;28;20035;-77
2024/01/30 05:49:32;;;;;;;20.92;7.80;;;;;;;7.46;100.00;102309.22;4976724;28;20046;-75
2024/01/30 05:51:58;;;;;;;21.35;8.90;;;;;;;7.47;100.00;102300.28;4980202;28;20122;-74
2024/01/30 05:54:23;;;;;;;21.13;8.13;;;;;;;7.51;100.00;102314.38;4973656;28;20019;-74
2024/01/30 05:56:48;;;;;;;21.50;7.80;;;;;;;7.52;100.00;102316.16;4975234;28;20078;-76
2024/01/30 05:59:14;;;;;;;19.10;7.10;;;;;;;7.54;100.00;102311.63;4989303;28;20167;-75
2024/01/30 06:01:46;;;;;;;19.17;7.35;;;;;;;7.57;100.00;102315.97;4975859;28;20038;-76
2024/01/30 06:04:11;;;;;;;20.38;7.50;;;;;;;7.59;100.00;102315.00;4993426;28;20023;-75
2024/01/30 06:06:36;;;;;;;17.15;6.97;;;;;;;7.60;100.00;102311.41;4962707;28;20074;-77
2024/01/30 06:09:02;;;;;;;20.80;7.80;;;;;;;7.63;100.00;102311.28;4954776;28;20627;-75
2024/01/30 06:11:27;;;;;;;21.02;8.13;;;;;;;7.65;100.00;102316.56;4955777;29;20872;-77
2024/01/30 06:13:53;;;;;;;23.33;8.10;;;;;;;7.68;100.00;102311.09;4959219;29;20062;-75
2024/01/30 06:16:20;;;;;;;18.70;7.22;;;;;;;7.67;100.00;102318.25;4954993;29;20043;-74
2024/01/30 06:18:46;;;;;;;21.83;8.10;;;;;;;7.68;100.00;102319.13;4956732;28;20063;-75
2024/01/30 06:21:11;;;;;;;19.40;8.07;;;;;;;7.67;100.00;102312.91;4954972;28;20055;-75
2024/01/30 06:23:36;;;;;;;20.08;7.47;;;;;;;7.68;100.00;102320.00;4958526;28;20062;-74
2024/01/30 06:26:02;;;;;;;18.88;7.95;;;;;;;7.68;100.00;102325.34;4954409;29;20019;-76
2024/01/30 06:28:27;;;;;;;22.23;8.77;;;;;;;7.72;100.00;102327.91;4957790;29;20097;-76
2024/01/30 06:30:52;;;;;;;20.42;8.40;;;;;;;7.72;100.00;102319.88;4956201;29;20031;-76
2024/01/30 06:33:18;;;;;;;18.77;7.32;;;;;;;7.74;100.00;102334.94;4954602;29;20090;-74
2024/01/30 06:35:45;;;;;;;21.63;7.85;;;;;;;7.77;100.00;102328.63;4969026;28;20054;-75
2024/01/30 06:38:10;;;;;;;19.45;7.20;;;;;;;7.78;100.00;102336.59;4955153;29;20130;-77
2024/01/30 06:40:36;;;;;;;18.92;7.18;;;;;;;7.80;100.00;102340.06;4957667;29;20034;-75
2024/01/30 06:43:01;;;;;;;18.75;7.10;;;;;;;7.82;100.00;102337.34;4959461;29;20114;-75
2024/01/30 06:45:27;;;;;;;19.45;7.55;;;;;;;7.83;100.00;102333.72;4959730;28;20035;-75
2024/01/30 06:47:52;;;;;;;21.85;8.75;;;;;;;7.84;100.00;102324.78;4957578;29;20035;-75
2024/01/30 06:50:17;;;;;;;20.02;7.63;;;;;;;7.86;100.00;102334.50;4945082;28;20477;-77
2024/01/30 06:52:43;;;;;;;20.42;8.05;;;;;;;7.88;100.00;102350.50;4947973;28;20551;-77
2024/01/30 06:55:09;;;;;;;21.88;8.70;;;;;;;7.90;100.00;102335.25;4940095;29;20041;-77
2024/01/30 06:57:35;;;;;;;19.98;8.27;;;;;;;7.91;100.00;102346.84;4947209;29;20452;-77
2024/01/30 07:00:00;;;;;;;21.23;8.38;;;;;;;7.93;100.00;102361.88;4943097;29;20035;-77
2024/01/30 07:02:25;;;;;;;20.23;7.75;;;;;;;7.96;100.00;102371.63;4939977;29;20058;-77
2024/01/30 07:04:51;;;;;;;22.15;8.85;;;;;;;7.95;100.00;102370.75;4945770;29;20023;-77
2024/01/30 07:07:16;;;;;;;19.90;8.23;;;;;;;7.95;100.00;102365.41;4943014;29;20484;-77
2024/01/30 07:09:41;;;;;;;21.67;8.18;;;;;;;7.97;100.00;102379.59;4947394;28;20114;-77
2024/01/30 07:12:07;;;;;;;20.33;7.93;;;;;;;7.97;100.00;102376.91;4944698;29;20489;-77
2024/01/30 07:14:33;;;;;;;19.75;7.57;;;;;;;7.98;100.00;102383.13;4943172;29;20020;-77
2024/01/30 07:16:58;;;;;;;21.15;8.18;;;;;;;7.99;100.00;102379.53;4959935;28;20074;-77
2024/01/30 07:19:23;;;;;;;20.42;8.43;;;;;;;7.97;100.00;102384.94;4943902;28;20055;-77
2024/01/30 07:21:49;;;;;;;19.27;7.40;;;;;;;7.99;100.00;102382.22;4943845;28;20027;-77
2024/01/30 07:24:14;;;;;;;20.75;7.93;;;;;;;8.00;100.00;102384.81;4943490;28;20107;-77
2024/01/30 07:26:39;;;;;;;21.70;8.77;;;;;;;8.01;100.00;102385.72;4957471;28;20329;-77
2024/01/30 07:29:04;;;;;;;23.10;8.50;;;;;;;8.02;100.00;102393.69;4947490;28;20479;-77
2024/01/30 07:31:30;;;;;;;18.95;7.03;;;;;;;8.02;100.00;102391.03;4941071;28;20036;-77
2024/01/30 07:33:55;;;;;;;20.00;7.55;;;;;;;8.00;100.00;102392.00;4939701;29;20398;-77
2024/01/30 07:36:20;;;;;;;19.80;7.85;;;;;;;8.02;100.00;102393.69;4944284;28;20093;-77
2024/01/30 07:38:46;;;;;;;21.05;8.13;;;;;;;8.02;100.00;102393.69;4937698;29;20078;-77
2024/01/30 07:41:11;;;;;;;21.52;7.63;;;;;;;8.03;100.00;102394.56;4942252;28;20027;-77
2024/01/30 07:43:38;;;;;;;19.75;7.30;;;;;;;8.05;100.00;102400.72;4941218;28;20438;-77
2024/01/30 07:46:06;;;;;;;19.23;7.70;;;;;;;8.08;100.00;102402.41;4944255;29;20031;-77
2024/01/30 07:48:33;;;;;;;22.90;8.68;;;;;;;8.09;100.00;102399.66;4955484;28;20046;-77
2024/01/30 07:50:59;;;;;;;21.40;7.80;;;;;;;8.09;100.00;102402.34;4947063;29;20513;-77
2024/01/30 07:53:24;;;;;;;19.77;8.10;;;;;;;8.11;100.00;102408.53;4943971;28;20019;-77
2024/01/30 07:55:49;;;;;;;18.23;7.53;;;;;;;8.12;100.00;102410.25;4956838;28;20040;-77
2024/01/30 07:58:15;;;;;;;18.83;7.47;;;;;;;8.13;100.00;102412.03;4945377;29;20430;-77
2024/01/30 08:00:40;;;;;;;21.17;7.55;;;;;;;8.13;100.00;102416.50;4951471;29;20019;-76
2024/01/30 08:03:06;;;;;;;20.88;7.82;;;;;;;8.15;100.00;102414.63;4952502;29;20036;-74
2024/01/30 08:05:31;;;;;;;22.80;7.70;;;;;;;8.14;100.00;102419.13;4955240;28;20130;-75
2024/01/30 08:07:56;;;;;;;21.77;8.50;;;;;;;8.16;100.00;102416.38;4950042;29;20035;-74
2024/01/30 08:10:22;;;;;;;20.83;8.15;;;;;;;8.19;100.00;102419.81;4971471;28;20474;-75
2024/01/30 08:12:47;;;;;;;22.75;8.35;;;;;;;8.23;100.00;102418.78;4951959;29;20060;-74
2024/01/30 08:15:15;;;;;;;24.48;8.65;;;;;;;8.26;100.00;102427.59;4967586;28;20039;-75
2024/01/30 08:17:40;;;;;;;20.30;8.20;;;;;;;8.29;100.00;102427.53;4950968;29;20058;-75
2024/01/30 08:20:08;;;;;;;22.95;8.57;;;;;;;8.33;100.00;102427.34;4949662;29;20035;-75
2024/01/30 08:22:33;;;;;;;19.48;6.97;;;;;;;8.36;100.00;102419.19;4955575;28;20035;-74
2024/01/30 08:24:58;;;;;;;22.88;8.25;;;;;;;8.41;100.00;102419.00;4957551;28;20283;-75
2024/01/30 08:27:24;;;;;;;19.33;8.18;;;;;;;8.47;100.00;102429.50;4952252;29;20038;-75
2024/01/30 08:29:50;;;;;;;22.90;8.85;;;;;;;8.51;100.00;102423.09;4958724;29;20467;-76
2024/01/30 08:32:16;;;;;;;20.00;7.80;;;;;;;8.57;100.00;102430.88;4972252;28;20039;-75
2024/01/30 08:34:41;;;;;;;21.33;7.95;;;;;;;8.61;100.00;102428.97;4953918;28;20027;-76
2024/01/30 08:37:06;;;;;;;19.98;8.02;;;;;;;8.65;100.00;102429.72;4970536;28;20066;-75
2024/01/30 08:39:32;;;;;;;20.00;7.72;;;;;;;8.70;100.00;102436.63;4955563;28;20518;-75
2024/01/30 08:41:57;;;;;;;20.65;8.07;;;;;;;8.75;100.00;102433.75;4954756;28;20042;-75
2024/01/30 08:44:23;;;;;;;22.15;8.45;;;;;;;8.79;100.00;102426.50;4956650;28;20555;-76
2024/01/30 08:46:49;;;;;;;20.63;7.85;;;;;;;8.82;100.00;102421.00;4960657;28;20119;-77
2024/01/30 08:49:16;;;;;;;20.25;8.15;;;;;;;8.86;100.00;102425.31;4954821;29;20027;-74
2024/01/30 08:51:42;;;;;;;22.40;9.00;;;;;;;8.90;100.00;102421.53;4957377;28;20035;-75
2024/01/30 08:54:07;;;;;;;22.38;8.65;;;;;;;8.95;100.00;102427.59;4969403;28;20059;-75
2024/01/30 08:56:32;;;;;;;21.83;8.40;;;;;;;9.01;100.00;102421.97;4955972;29;20109;-75
2024/01/30 08:58:58;;;;;;;19.15;7.72;;;;;;;9.05;100.00;102417.38;4956206;29;20047;-78
2024/01/30 09:01:23;;;;;;;21.48;8.20;;;;;;;9.08;100.00;102422.59;4953941;28;20042;-75
2024/01/30 09:03:48;;;;;;;21.50;8.75;;;;;;;9.13;100.00;102430.47;4958736;28;20012;-75
2024/01/30 09:06:14;;;;;;;19.60;7.97;;;;;;;9.15;100.00;102431.25;4959145;28;20075;-74
2024/01/30 09:08:39;;;;;;;23.45;8.23;;;;;;;9.19;100.00;102435.56;4954180;29;20046;-75
2024/01/30 09:11:15;;;;;;;21.85;8.57;;;;;;;9.24;100.00;102436.25;4951681;29;20019;-76
2024/01/30 09:13:41;;;;;;;19.92;7.28;;;;;;;9.27;100.00;102434.31;4970926;28;20087;-75
2024/01/30 09:16:07;;;;;;;20.55;8.45;;;;;;;9.30;100.00;102430.63;4949007;29;20419;-75
2024/01/30 09:18:32;;;;;;;22.90;8.30;;;;;;;9.34;100.00;102444.75;4965761;28;20043;-75
2024/01/30 09:20:58;;;;;;;20.77;8.38;;;;;;;9.36;100.00;102435.72;4951955;28;20111;-74
2024/01/30 09:23:23;;;;;;;20.40;7.85;;;;;;;9.37;100.00;102437.47;4953273;29;20024;-77
2024/01/30 09:25:49;;;;;;;21.92;8.48;;;;;;;9.41;100.00;102436.41;4955533;29;20032;-75
2024/01/30 09:28:14;;;;;;;21.27;7.63;;;;;;;9.45;100.00;102440.69;4967194;28;20146;-75
2024/01/30 09:30:40;;;;;;;20.08;8.60;;;;;;;9.51;100.00;102452.97;4954626;29;20031;-74
2024/01/30 09:33:06;;;;;;;21.58;7.97;;;;;;;9.56;100.00;102450.06;4948290;28;20026;-76
2024/01/30 09:35:31;;;;;;;20.67;8.75;;;;;;;9.61;100.00;102442.72;4955086;28;20012;-75
2024/01/30 09:37:57;;;;;;;20.95;8.57;;;;;;;9.67;100.00;102450.50;4952962;28;20976;-75
2024/01/30 09:40:23;;;;;;;25.15;9.25;;;;;;;9.71;100.00;102454.78;4960823;28;20127;-75
2024/01/30 09:42:50;;;;;;;21.60;8.45;;;;;;;9.76;100.00;102460.81;4953163;28;20031;-77
2024/01/30 09:45:18;;;;;;;22.58;8.95;;;;;;;9.80;100.00;102469.63;4952488;29;20027;-77
2024/01/30 09:47:45;;;;;;;22.40;8.82;;;;;;;9.80;100.00;102469.63;4949443;29;20016;-76
2024/01/30 09:50:12;;;;;;;21.05;8.73;;;;;;;9.80;100.00;102475.84;4961874;28;20038;-74
2024/01/30 09:52:38;;;;;;;20.13;8.48;;;;;;;9.80;100.00;102470.50;4955372;28;20189;-75
2024/01/30 09:55:04;;;;;;;24.80;8.90;;;;;;;9.82;100.00;102466.88;4953566;29;20027;-78
2024/01/30 09:57:29;;;;;;;21.33;8.50;;;;;;;9.85;100.00;102466.72;4951305;29;20028;-76
2024/01/30 09:59:55;;;;;;;20.95;8.88;;;;;;;9.88;100.00;102464.81;4953112;28;20039;-75
2024/01/30 10:02:21;;;;;;;23.45;8.07;;;;;;;9.88;100.00;102462.13;4952228;29;20046;-75
2024/01/30 10:04:50;;;;;;;24.60;9.38;;;;;;;9.88;100.00;102472.84;4953434;29;20055;-75
2024/01/30 10:07:19;;;;;;;22.58;9.48;;;;;;;9.86;100.00;102474.72;4949788;28;20046;-76
2024/01/30 10:09:44;;;;;;;24.35;9.10;;;;;;;9.85;100.00;102466.72;4951048;29;20039;-77
2024/01/30 10:12:10;;;;;;;22.10;8.93;;;;;;;9.84;100.00;102475.72;4968107;28;20053;-75
2024/01/30 10:14:39;;;;;;;21.08;9.52;;;;;;;9.85;100.00;102472.09;4951551;29;20045;-76
2024/01/30 10:17:05;;;;;;;20.50;9.10;;;;;;;9.85;100.00;102466.72;4957590;29;20042;-76
2024/01/30 10:19:33;;;;;;;24.40;9.73;;;;;;;9.89;100.00;102484.47;4955152;28;20023;-77
2024/01/30 10:22:00;;;;;;;21.70;8.73;;;;;;;9.89;100.00;102479.94;4955550;29;20023;-77
2024/01/30 10:24:26;;;;;;;23.80;9.45;;;;;;;9.96;100.00;102485.94;4957140;28;20024;-75
2024/01/30 10:26:51;;;;;;;23.10;9.35;;;;;;;10.00;100.00;102482.19;4955367;28;20028;-76
2024/01/30 10:29:17;;;;;;;23.83;9.65;;;;;;;10.04;100.00;102489.13;4970955;28;20035;-74
2024/01/30 10:31:42;;;;;;;23.33;10.18;;;;;;;10.08;100.00;102496.13;4954574;29;20051;-75
2024/01/30 10:34:08;;;;;;;21.23;9.48;;;;;;;10.11;100.00;102498.66;4957455;28;20028;-75
2024/01/30 10:36:40;;;;;;;24.88;9.57;;;;;;;10.15;100.00;102502.97;4971887;28;20079;-75
2024/01/30 10:39:06;;;;;;;21.55;8.88;;;;;;;10.15;100.00;102486.84;4954532;28;20620;-77
2024/01/30 10:41:42;;;;;;;26.35;9.70;;;;;;;10.16;100.00;102487.72;4960184;29;20091;-76
2024/01/30 10:44:11;;;;;;;21.63;9.20;;;;;;;10.17;100.00;102489.47;4957966;29;20409;-76
2024/01/30 10:46:39;;;;;;;22.48;9.45;;;;;;;10.21;100.00;102500.97;4957595;29;20031;-75
2024/01/30 10:49:05;;;;;;;24.40;9.15;;;;;;;10.23;100.00;102493.69;4958829;29;20082;-77
2024/01/30 10:51:32;;;;;;;23.67;9.65;;;;;;;10.26;100.00;102496.22;4971487;28;20023;-75
2024/01/30 10:53:58;;;;;;;23.08;9.65;;;;;;;10.28;100.00;102489.00;4957576;29;20065;-75
2024/01/30 10:56:24;;;;;;;22.15;9.13;;;;;;;10.29;100.00;102488.91;4960942;28;20073;-74
2024/01/30 10:58:52;;;;;;;22.52;9.68;;;;;;;10.31;100.00;102497.78;4967949;28;20047;-76
2024/01/30 11:01:19;;;;;;;21.58;9.27;;;;;;;10.32;100.00;102501.31;4955908;28;20095;-76
2024/01/30 11:03:45;;;;;;;26.40;10.20;;;;;;;10.31;100.00;102491.53;4969499;28;20030;-75
2024/01/30 11:06:18;;;;;;;24.52;10.00;;;;;;;10.28;100.00;102497.06;4957074;28;20052;-74
2024/01/30 11:08:43;;;;;;;24.38;9.48;;;;;;;10.25;100.00;102498.06;4955505;29;20041;-74
2024/01/30 11:11:10;;;;;;;22.83;10.07;;;;;;;10.23;100.00;102509.81;4960327;29;20118;-77